Charleston AFB, SC (29404)

10:44 PM EST on December 10, 2016 (GMT -0500)
Evanston Estates | | Change Station

Elev 9 ft 32.85 °N, 80.05 °W | Updated 11 minutes ago

Clear
Clear
37.3 °F
Feels Like 37 °F
N
0.0
Wind Variable Wind from ENE
Gusts 2.0 mph

Today
High -- | Low -- °F
--% Chance of Precip.
Yesterday
High -- | Low -- °F
Precip. -- in
Pressure 30.51 in
Visibility 10.0 miles
Clouds Clear
Windchill 37 °F
Dew Point 29 °F
Humidity 71%
Rainfall 0.00 in
Snow Depth Not available.
7:12 AM 5:14 PM
Waxing Gibbous, 88% visible
METAR KCHS 110256Z 06003KT 10SM CLR 03/M03 A3051 RMK AO2 SLP331 T00281033 53005
Pressure 30.51 in
Visibility 10.0 miles
Clouds Clear
Windchill 37 °F
Dew Point 29 °F
Humidity 71%
Rainfall 0.00 in
Snow Depth Not available.
7:12 AM 5:14 PM
Waxing Gibbous, 88% visible
METAR KCHS 110256Z 06003KT 10SM CLR 03/M03 A3051 RMK AO2 SLP331 T00281033 53005

10-Day Weather Forecast

Almanac

Astronomy

Dec. 10, 2016 Rise Set
Actual Time
Civil Twilight
Nautical Twilight
Astronomical Twilight
Moon
Length of Visible Light
Length of Day
Tomorrow will be .
, % of the Moon is Illuminated

Today's Extremes

State Highs State Lows

Community

WunderPhotos

Upload Photos

1,956,703 photos uploaded!

WunderBlog® & News

Nearby

Air Quality

  Air Quality AQ Index Pollutant
Not available.

Snow Depth

Station Depth Elevation

Earthquake Activity

City Distance Mag. Time & Date
Minimum magnitude displayed is 2.5.

Coastal Water Temperatures

Place Temperature

Stations

Nearby Weather Stations

Station Location Temp. Windchill Dew Point Humidity Wind Precip. Elev Updated Type
                   

Watches & Warnings

There are currently no watches in effect.